Time;durP1;ratioP1;P1;durP2;ratioP2;P2;SDS_P1;SDS_P2;PMS_P1;PMS_P2;Temp;Humidity;BMP_temperature;BMP_pressure;BME280_temperature;BME280_humidity;BME280_pressure;Samples;Min_cycle;Max_cycle;Signal;HPM_P1;HPM_P2
2021/12/10 00:01:02;;;;;;;26.23;10.27;;;2.60;93.30;;;;;;5060888;28;20104;-84
2021/12/10 00:03:36;;;;;;;26.52;9.68;;;2.60;93.40;;;;;;5040151;28;20053;-84
2021/12/10 00:06:13;;;;;;;34.30;11.05;;;2.50;93.20;;;;;;5052481;28;20050;-84
2021/12/10 00:08:45;;;;;;;33.97;11.32;;;2.40;93.40;;;;;;5047457;28;20057;-84
2021/12/10 00:11:19;;;;;;;34.63;11.02;;;2.40;93.30;;;;;;5035948;28;20088;-85
2021/12/10 00:13:50;;;;;;;28.02;10.75;;;2.30;93.30;;;;;;5038067;28;20069;-85
2021/12/10 00:16:20;;;;;;;29.27;9.80;;;2.30;93.50;;;;;;5042140;28;20132;-84
2021/12/10 00:18:56;;;;;;;27.77;10.88;;;2.30;93.70;;;;;;5044694;28;20053;-85
2021/12/10 00:21:26;;;;;;;33.30;10.90;;;2.30;93.90;;;;;;5046370;28;20080;-85
2021/12/10 00:23:56;;;;;;;24.48;11.73;;;2.30;93.80;;;;;;5040382;28;20053;-85
2021/12/10 00:26:24;;;;;;;33.72;11.63;;;2.30;93.90;;;;;;5040988;28;20054;-84
2021/12/10 00:28:51;;;;;;;28.73;11.93;;;2.40;93.70;;;;;;5045853;28;20057;-84
2021/12/10 00:34:12;;;;;;;32.30;11.88;;;2.40;93.50;;;;;;5044095;28;20089;-85
2021/12/10 00:36:39;;;;;;;34.45;12.10;;;2.40;93.50;;;;;;5037885;28;20031;-85
2021/12/10 00:39:10;;;;;;;34.35;13.23;;;2.50;93.30;;;;;;5046979;28;20148;-85
2021/12/10 00:41:38;;;;;;;30.67;11.68;;;2.50;93.30;;;;;;5047200;28;20050;-84
2021/12/10 00:44:05;;;;;;;28.63;11.77;;;2.50;93.30;;;;;;5042652;28;20140;-84
2021/12/10 00:46:32;;;;;;;27.48;11.90;;;2.50;93.30;;;;;;5044396;28;20049;-85
2021/12/10 00:48:59;;;;;;;27.25;12.10;;;2.50;92.90;;;;;;5041881;28;20141;-84
2021/12/10 00:51:26;;;;;;;30.92;12.98;;;2.50;92.50;;;;;;5040021;28;20058;-85
2021/12/10 00:53:57;;;;;;;27.10;12.43;;;2.50;92.60;;;;;;5046359;28;20053;-84
2021/12/10 00:56:26;;;;;;;19.57;12.03;;;2.50;92.60;;;;;;5038299;28;20052;-84
2021/12/10 00:58:55;;;;;;;32.63;13.18;;;2.50;92.30;;;;;;5053715;28;20046;-85
2021/12/10 01:01:27;;;;;;;30.77;13.43;;;2.50;92.70;;;;;;5034520;28;20124;-84
2021/12/10 01:04:04;;;;;;;28.25;12.68;;;2.50;92.80;;;;;;5058551;28;20057;-84
2021/12/10 01:06:31;;;;;;;27.45;13.05;;;2.50;92.80;;;;;;5038119;28;20046;-84
2021/12/10 01:09:07;;;;;;;30.95;13.27;;;2.50;92.60;;;;;;5043633;28;20053;-85
2021/12/10 01:11:43;;;;;;;33.88;13.02;;;2.60;92.60;;;;;;5049794;28;20411;-85
2021/12/10 01:14:22;;;;;;;27.15;13.43;;;2.60;92.20;;;;;;5037154;28;20919;-85
2021/12/10 01:25:32;;;;;;;33.28;13.88;;;2.50;91.80;;;;;;5040799;28;20053;-85
2021/12/10 01:28:02;;;;;;;30.02;12.63;;;2.50;92.00;;;;;;5041710;28;20066;-84
2021/12/10 01:30:33;;;;;;;21.80;11.88;;;2.50;91.80;;;;;;5052159;28;20953;-85
2021/12/10 01:33:13;;;;;;;23.52;12.48;;;2.50;91.60;;;;;;5036473;28;20086;-84
2021/12/10 01:35:48;;;;;;;23.98;11.35;;;2.50;91.70;;;;;;5041530;28;20081;-85
2021/12/10 01:38:23;;;;;;;23.77;12.02;;;2.50;91.90;;;;;;5040608;28;20046;-85
2021/12/10 01:40:56;;;;;;;25.23;10.75;;;2.50;91.90;;;;;;5042122;28;20946;-84
2021/12/10 01:43:23;;;;;;;27.33;11.47;;;2.50;91.10;;;;;;5040615;28;20060;-84
2021/12/10 01:46:06;;;;;;;24.02;11.45;;;2.50;91.10;;;;;;5042527;28;20362;-85
2021/12/10 01:48:39;;;;;;;27.23;10.65;;;2.40;91.10;;;;;;5047480;28;20085;-85
2021/12/10 01:51:09;;;;;;;28.25;11.13;;;2.40;90.90;;;;;;5042504;28;20133;-84
2021/12/10 01:53:42;;;;;;;25.52;11.07;;;2.30;90.70;;;;;;5036622;28;20049;-85
2021/12/10 01:56:15;;;;;;;24.92;10.20;;;2.30;90.90;;;;;;5048494;28;20103;-84
2021/12/10 01:58:42;;;;;;;;;;;2.20;91.00;;;;;;5041556;28;20057;-84
2021/12/10 02:01:28;;;;;;;21.85;10.15;;;2.10;91.10;;;;;;5038500;28;19965;-85
2021/12/10 02:03:56;;;;;;;20.23;10.35;;;2.10;91.10;;;;;;5042290;28;20509;-85
2021/12/10 02:06:23;;;;;;;19.35;10.32;;;2.10;91.20;;;;;;5050202;28;20133;-84
2021/12/10 02:08:50;;;;;;;18.25;10.52;;;2.00;91.30;;;;;;5049509;28;20140;-84
2021/12/10 02:11:20;;;;;;;19.92;9.95;;;2.00;91.30;;;;;;5036821;28;20104;-84
2021/12/10 02:13:47;;;;;;;26.13;10.93;;;2.00;91.20;;;;;;5038447;28;20054;-84
2021/12/10 02:16:15;;;;;;;22.65;10.32;;;2.00;91.40;;;;;;5037302;28;20132;-84
2021/12/10 02:18:42;;;;;;;23.05;9.75;;;1.90;91.50;;;;;;5039211;28;20053;-85
2021/12/10 02:21:09;;;;;;;20.10;9.65;;;1.90;91.60;;;;;;5042259;28;20159;-84
2021/12/10 02:23:40;;;;;;;19.30;9.52;;;1.90;91.50;;;;;;5038383;28;20049;-85
2021/12/10 02:26:10;;;;;;;21.33;9.18;;;1.90;91.50;;;;;;5038639;28;20141;-85
2021/12/10 02:28:39;;;;;;;25.52;10.13;;;1.90;91.30;;;;;;5033931;28;20201;-85
2021/12/10 02:31:08;;;;;;;20.55;8.77;;;1.90;91.30;;;;;;5037713;28;20057;-84
2021/12/10 02:33:42;;;;;;;19.95;9.18;;;1.90;91.30;;;;;;5047166;28;20064;-84
2021/12/10 02:36:12;;;;;;;19.90;8.65;;;1.90;91.40;;;;;;5035914;28;20137;-84
2021/12/10 02:38:52;;;;;;;20.60;8.55;;;1.90;91.20;;;;;;5035510;28;20054;-85
2021/12/10 02:41:23;;;;;;;18.92;7.57;;;1.90;90.90;;;;;;5040454;28;20112;-84
2021/12/10 02:43:50;;;;;;;18.75;8.02;;;1.90;91.00;;;;;;5040604;28;20054;-85
2021/12/10 02:46:17;;;;;;;14.60;7.63;;;1.90;91.00;;;;;;5045314;28;20057;-85
2021/12/10 02:48:47;;;;;;;19.60;7.80;;;2.00;90.70;;;;;;5037406;28;20050;-84
2021/12/10 02:51:16;;;;;;;21.90;8.48;;;1.90;90.60;;;;;;5034022;28;20101;-84
2021/12/10 02:53:45;;;;;;;22.88;8.25;;;1.90;90.60;;;;;;5041228;28;20134;-84
2021/12/10 02:56:16;;;;;;;19.95;7.43;;;1.90;90.50;;;;;;5043538;28;20053;-84
2021/12/10 02:58:45;;;;;;;20.17;7.90;;;1.90;90.70;;;;;;5040607;28;20058;-84
2021/12/10 03:01:19;;;;;;;18.75;7.40;;;1.90;90.70;;;;;;5045460;28;20128;-84
2021/12/10 03:03:49;;;;;;;15.95;7.28;;;1.90;90.70;;;;;;5058897;28;20053;-85
2021/12/10 03:06:21;;;;;;;17.58;6.55;;;1.90;90.50;;;;;;5041722;28;20469;-85
2021/12/10 03:08:51;;;;;;;19.20;6.90;;;1.90;90.60;;;;;;5046007;28;20128;-84
2021/12/10 03:11:34;;;;;;;14.10;6.43;;;1.80;90.60;;;;;;5041477;28;20068;-85
2021/12/10 03:14:06;;;;;;;;;;;1.90;90.50;;;;;;5043212;28;20100;-85
2021/12/10 03:16:33;;;;;;;21.13;6.25;;;1.90;90.40;;;;;;5044887;28;20487;-84
2021/12/10 03:19:01;;;;;;;16.35;6.47;;;1.90;90.40;;;;;;5039355;28;20687;-84
2021/12/10 03:21:27;;;;;;;9.90;5.78;;;1.90;90.20;;;;;;5044628;28;20053;-85
2021/12/10 03:23:57;;;;;;;20.38;6.15;;;1.90;90.30;;;;;;5049874;28;20057;-84
2021/12/10 03:26:25;;;;;;;15.57;5.45;;;1.90;90.20;;;;;;5055541;28;20034;-84
2021/12/10 03:28:57;;;;;;;14.02;4.57;;;1.90;90.10;;;;;;5055695;28;20149;-84
2021/12/10 03:31:33;;;;;;;12.07;5.47;;;1.90;89.90;;;;;;5045702;28;20057;-85
2021/12/10 03:34:01;;;;;;;13.00;4.30;;;2.00;89.50;;;;;;5037839;28;20073;-85
2021/12/10 03:36:28;;;;;;;14.13;4.38;;;2.00;89.50;;;;;;5037539;28;20041;-85
2021/12/10 03:38:58;;;;;;;11.77;3.90;;;2.00;89.40;;;;;;5035279;28;20058;-84
2021/12/10 03:41:25;;;;;;;14.02;4.78;;;2.10;88.80;;;;;;5043822;28;20472;-84
2021/12/10 03:43:53;;;;;;;10.00;3.60;;;2.10;88.80;;;;;;5037348;28;20069;-84
2021/12/10 03:46:22;;;;;;;7.22;3.65;;;2.20;88.60;;;;;;5049568;28;20578;-85
2021/12/10 03:48:52;;;;;;;12.45;4.35;;;2.30;88.00;;;;;;5043351;28;20058;-84
2021/12/10 03:51:25;;;;;;;13.77;3.92;;;2.30;87.70;;;;;;5035993;28;20891;-84
2021/12/10 03:53:56;;;;;;;10.95;3.70;;;2.30;87.60;;;;;;5041542;28;20513;-84
2021/12/10 03:56:26;;;;;;;9.95;3.60;;;2.30;87.50;;;;;;5049571;28;20053;-85
2021/12/10 03:58:55;;;;;;;9.82;4.03;;;2.30;87.30;;;;;;5045190;28;20085;-85
2021/12/10 04:01:25;;;;;;;12.57;3.60;;;2.30;87.00;;;;;;5040897;28;20089;-84
2021/12/10 04:03:54;;;;;;;10.27;3.67;;;2.40;86.80;;;;;;5038656;28;20054;-85
2021/12/10 04:06:22;;;;;;;7.55;3.42;;;2.30;86.90;;;;;;5049958;28;20049;-85
2021/12/10 04:08:55;;;;;;;13.15;3.80;;;2.40;86.90;;;;;;5050904;28;20050;-84
2021/12/10 04:11:27;;;;;;;13.18;3.75;;;2.30;87.00;;;;;;5057024;28;20111;-84
2021/12/10 04:13:54;;;;;;;16.73;4.00;;;2.30;86.80;;;;;;5055976;28;20858;-84
2021/12/10 04:16:24;;;;;;;13.30;3.50;;;2.30;87.00;;;;;;5060195;28;20052;-84
2021/12/10 04:18:53;;;;;;;7.35;3.47;;;2.30;87.10;;;;;;5060176;28;20029;-84
2021/12/10 04:21:22;;;;;;;12.98;4.05;;;2.40;86.70;;;;;;5059856;28;20053;-85
2021/12/10 04:23:53;;;;;;;11.02;3.75;;;2.30;86.40;;;;;;5047487;28;20516;-84
2021/12/10 04:26:25;;;;;;;11.15;3.50;;;2.40;86.70;;;;;;5050812;28;20832;-85
2021/12/10 04:28:54;;;;;;;8.10;3.35;;;2.40;86.70;;;;;;5047976;28;20057;-86
2021/12/10 04:31:24;;;;;;;11.05;3.17;;;2.40;86.70;;;;;;5055132;28;20056;-83
2021/12/10 04:33:51;;;;;;;9.40;3.10;;;2.50;85.80;;;;;;5037689;28;20057;-84
2021/12/10 04:36:18;;;;;;;11.68;3.50;;;2.50;85.80;;;;;;5035728;28;20052;-83
2021/12/10 04:38:47;;;;;;;9.50;3.95;;;2.60;85.60;;;;;;5039703;28;20050;-83
2021/12/10 04:41:17;;;;;;;8.93;3.20;;;2.60;85.60;;;;;;5043859;28;20108;-83
2021/12/10 04:43:47;;;;;;;7.88;3.15;;;2.60;85.90;;;;;;5035043;28;20050;-84
2021/12/10 04:46:16;;;;;;;8.00;3.03;;;2.60;85.60;;;;;;5039125;28;20064;-84
2021/12/10 04:48:50;;;;;;;11.25;3.38;;;2.60;85.10;;;;;;5041854;28;20056;-84
2021/12/10 04:51:23;;;;;;;11.57;3.47;;;2.60;85.70;;;;;;5041748;28;20076;-84
2021/12/10 04:53:51;;;;;;;12.60;3.75;;;2.70;85.20;;;;;;5035585;28;20892;-83
2021/12/10 04:56:20;;;;;;;8.80;2.92;;;2.70;84.70;;;;;;5040765;28;20111;-83
2021/12/10 04:58:47;;;;;;;12.32;3.10;;;2.70;84.40;;;;;;5050001;28;20096;-83
2021/12/10 05:01:15;;;;;;;16.05;3.58;;;2.80;84.40;;;;;;5041680;28;20054;-83
2021/12/10 05:03:42;;;;;;;11.93;3.10;;;2.80;84.40;;;;;;5040034;28;20137;-83
2021/12/10 05:06:09;;;;;;;12.70;2.50;;;2.80;84.70;;;;;;5040693;28;20133;-83
2021/12/10 05:08:39;;;;;;;8.93;2.75;;;2.80;84.20;;;;;;5050713;28;20869;-83
2021/12/10 05:11:09;;;;;;;9.10;2.95;;;2.90;83.30;;;;;;5040505;28;20447;-83
2021/12/10 05:13:38;;;;;;;8.02;2.42;;;2.90;83.60;;;;;;5041321;28;20149;-83
2021/12/10 05:16:05;;;;;;;10.48;2.97;;;2.90;83.50;;;;;;5033492;28;20081;-83
2021/12/10 05:18:38;;;;;;;14.05;2.65;;;2.90;83.70;;;;;;5032528;28;20054;-84
2021/12/10 05:21:07;;;;;;;13.57;2.90;;;2.90;83.70;;;;;;5033911;28;20057;-83
2021/12/10 05:23:34;;;;;;;9.35;2.10;;;2.90;83.50;;;;;;5035303;28;20110;-83
2021/12/10 05:26:01;;;;;;;11.77;2.55;;;2.80;83.70;;;;;;5048092;28;20059;-83
2021/12/10 05:28:28;;;;;;;9.82;2.40;;;2.90;83.90;;;;;;5040445;28;20085;-83
2021/12/10 05:30:56;;;;;;;12.50;2.70;;;2.90;83.40;;;;;;5038465;28;20046;-83
2021/12/10 05:33:25;;;;;;;6.47;2.30;;;2.90;83.70;;;;;;5051569;28;20940;-83
2021/12/10 05:35:53;;;;;;;6.32;2.20;;;2.90;83.80;;;;;;5055074;28;20128;-83
2021/12/10 05:38:22;;;;;;;15.18;3.30;;;2.90;83.60;;;;;;5045676;28;20136;-83
2021/12/10 05:40:51;;;;;;;9.85;2.60;;;2.90;84.20;;;;;;5060177;28;20072;-83
2021/12/10 05:43:21;;;;;;;7.80;2.30;;;2.90;83.00;;;;;;5038542;28;20053;-83
2021/12/10 05:45:49;;;;;;;14.27;2.80;;;3.00;82.70;;;;;;5032261;28;20081;-83
2021/12/10 05:48:20;;;;;;;9.77;3.00;;;3.00;83.20;;;;;;5040263;28;20057;-83
2021/12/10 05:50:47;;;;;;;9.23;2.70;;;3.00;82.50;;;;;;5032437;28;20054;-83
2021/12/10 05:53:14;;;;;;;7.68;2.67;;;3.00;83.30;;;;;;5042100;28;20064;-83
2021/12/10 05:55:47;;;;;;;11.50;2.70;;;2.90;83.80;;;;;;5045036;28;20050;-83
2021/12/10 05:58:22;;;;;;;13.20;2.92;;;2.90;84.80;;;;;;5033641;28;20129;-83
2021/12/10 06:01:02;;;;;;;12.65;2.95;;;2.80;84.70;;;;;;5035444;28;20144;-83
2021/12/10 06:03:31;;;;;;;9.20;2.50;;;2.80;85.70;;;;;;5045821;28;20060;-83
2021/12/10 06:06:00;;;;;;;12.80;3.72;;;2.70;85.90;;;;;;5045993;28;20108;-83
2021/12/10 06:08:28;;;;;;;9.77;2.95;;;2.70;86.10;;;;;;5049589;28;20164;-83
2021/12/10 06:10:56;;;;;;;6.93;2.70;;;2.70;86.20;;;;;;5040066;28;20084;-83
2021/12/10 06:13:23;;;;;;;10.70;2.80;;;2.70;86.30;;;;;;5041713;28;20108;-83
2021/12/10 06:15:53;;;;;;;8.88;3.17;;;2.70;86.10;;;;;;5034546;28;20054;-83
2021/12/10 06:18:21;;;;;;;13.05;2.80;;;2.60;86.00;;;;;;5037345;28;20054;-83
2021/12/10 06:20:50;;;;;;;13.68;3.15;;;2.60;86.20;;;;;;5031975;28;20049;-83
2021/12/10 06:23:20;;;;;;;10.88;3.17;;;2.50;85.80;;;;;;5045116;28;20137;-83
2021/12/10 06:26:04;;;;;;;8.23;2.92;;;2.50;86.10;;;;;;5035342;28;20896;-83
2021/12/10 06:28:57;;;;;;;10.18;3.50;;;2.50;86.00;;;;;;5038962;28;20061;-83
2021/12/10 06:31:37;;;;;;;8.07;3.30;;;2.50;86.40;;;;;;5044468;28;20053;-83
2021/12/10 06:34:24;;;;;;;9.13;3.33;;;2.50;86.60;;;;;;5055291;28;20580;-83
2021/12/10 06:37:00;;;;;;;10.13;3.70;;;2.50;87.20;;;;;;5050398;28;20505;-83
2021/12/10 06:39:29;;;;;;;11.75;3.10;;;2.50;86.70;;;;;;5039766;28;20054;-83
2021/12/10 06:42:03;;;;;;;;;;;2.40;87.00;;;;;;5046531;28;20600;-83
2021/12/10 06:44:33;;;;;;;13.63;3.22;;;2.40;86.80;;;;;;5038464;28;20415;-83
2021/12/10 06:47:05;;;;;;;15.77;3.65;;;2.40;87.10;;;;;;5041980;28;20504;-83
2021/12/10 06:49:46;;;;;;;;;;;;;;;;;;;;;
2021/12/10 06:52:24;;;;;;;10.82;3.33;;;2.40;87.00;;;;;;5039185;28;20431;-83
2021/12/10 06:54:56;;;;;;;8.48;3.40;;;2.40;86.60;;;;;;5036270;28;20116;-85
2021/12/10 06:57:24;;;;;;;11.05;3.47;;;2.40;86.90;;;;;;5048474;28;20100;-83
2021/12/10 07:00:02;;;;;;;14.82;3.83;;;2.30;86.80;;;;;;5037068;28;20042;-83
2021/12/10 07:02:30;;;;;;;10.52;3.65;;;2.30;87.00;;;;;;5040393;28;20064;-83
2021/12/10 07:05:07;;;;;;;11.52;3.50;;;2.30;87.20;;;;;;5052408;28;20054;-83
2021/12/10 07:07:48;;;;;;;14.30;3.40;;;2.40;87.10;;;;;;5047006;28;20151;-83
2021/12/10 07:10:36;;;;;;;21.75;3.83;;;2.40;86.80;;;;;;5044479;28;20128;-83
2021/12/10 07:13:24;;;;;;;12.93;3.28;;;2.40;86.80;;;;;;5039724;28;20517;-83
2021/12/10 07:16:06;;;;;;;12.05;3.22;;;2.40;86.80;;;;;;5034692;28;20054;-82
2021/12/10 07:18:36;;;;;;;11.90;3.75;;;2.40;86.70;;;;;;5036473;28;20050;-83
2021/12/10 07:21:23;;;;;;;14.85;3.65;;;2.50;86.10;;;;;;5039157;28;20097;-83
2021/12/10 07:24:17;;;;;;;15.77;4.13;;;2.50;86.50;;;;;;5039491;28;20064;-83
2021/12/10 07:26:50;;;;;;;11.57;3.55;;;2.50;86.50;;;;;;5049287;28;20046;-83
2021/12/10 07:29:22;;;;;;;10.88;3.35;;;2.60;86.40;;;;;;5046687;28;20042;-82
2021/12/10 07:32:17;;;;;;;12.60;3.78;;;2.60;86.30;;;;;;5049313;28;20050;-82
2021/12/10 07:35:12;;;;;;;9.05;3.20;;;2.60;86.30;;;;;;5046715;28;20112;-82
2021/12/10 07:38:03;;;;;;;10.40;4.13;;;2.60;86.00;;;;;;5049461;28;20045;-83
2021/12/10 07:40:47;;;;;;;12.18;3.53;;;2.60;85.80;;;;;;5064732;28;20128;-82
2021/12/10 07:43:25;;;;;;;12.35;3.53;;;2.60;86.30;;;;;;5049293;28;20132;-83
2021/12/10 07:45:55;;;;;;;13.15;3.28;;;2.60;86.00;;;;;;5047699;28;20057;-82
2021/12/10 07:48:41;;;;;;;9.88;3.13;;;2.60;85.90;;;;;;5043685;28;20461;-82
2021/12/10 07:51:47;;;;;;;13.35;4.18;;;2.60;85.70;;;;;;5053114;28;20057;-82
2021/12/10 07:54:35;;;;;;;11.45;3.00;;;2.60;85.90;;;;;;5044586;28;20141;-83
2021/12/10 07:57:22;;;;;;;8.38;3.17;;;2.60;85.90;;;;;;5017286;28;20796;-83
2021/12/10 07:59:53;;;;;;;10.55;3.65;;;2.70;86.00;;;;;;5047201;28;20045;-83
2021/12/10 08:05:29;;;;;;;15.30;3.67;;;2.70;85.90;;;;;;5049324;28;20118;-82
2021/12/10 08:08:03;;;;;;;12.70;3.30;;;2.70;86.10;;;;;;5049946;28;20205;-83
2021/12/10 08:10:42;;;;;;;11.90;4.03;;;2.70;86.50;;;;;;5042984;28;20141;-83
2021/12/10 08:13:25;;;;;;;9.63;3.47;;;2.70;86.80;;;;;;5047542;28;20057;-83
2021/12/10 08:16:02;;;;;;;11.38;3.22;;;2.70;87.00;;;;;;5044698;28;20061;-83
2021/12/10 08:18:32;;;;;;;16.40;4.00;;;2.70;86.90;;;;;;5043324;28;20061;-83
2021/12/10 08:21:01;;;;;;;11.00;3.58;;;2.70;87.10;;;;;;5040595;28;20058;-83
2021/12/10 08:23:45;;;;;;;11.90;3.58;;;2.70;86.90;;;;;;5042401;28;20054;-83
2021/12/10 08:26:22;;;;;;;15.38;4.10;;;2.70;86.90;;;;;;5046123;28;20058;-82
2021/12/10 08:29:02;;;;;;;12.00;3.50;;;2.70;86.50;;;;;;5053627;28;20079;-83
2021/12/10 08:31:39;;;;;;;8.77;3.40;;;2.70;86.80;;;;;;5063210;28;20048;-84
2021/12/10 08:34:32;;;;;;;9.00;3.33;;;2.70;86.50;;;;;;5045432;28;20057;-83
2021/12/10 08:37:01;;;;;;;11.10;3.00;;;2.80;86.50;;;;;;5014673;28;20085;-84
2021/12/10 08:39:44;;;;;;;12.43;3.42;;;2.80;86.30;;;;;;5020883;28;20062;-84
2021/12/10 08:45:47;;;;;;;10.40;3.30;;;2.80;86.40;;;;;;5018383;28;20128;-83
2021/12/10 08:48:26;;;;;;;11.45;3.50;;;2.80;86.10;;;;;;5025891;28;21000;-83
2021/12/10 08:50:56;;;;;;;10.68;3.30;;;2.90;86.50;;;;;;5022962;28;20089;-85
2021/12/10 08:53:31;;;;;;;11.18;3.70;;;2.80;86.80;;;;;;5010548;28;20448;-83
2021/12/10 08:56:23;;;;;;;12.27;3.38;;;2.90;86.90;;;;;;5018583;28;20065;-83
2021/12/10 08:59:15;;;;;;;10.48;3.67;;;2.80;86.50;;;;;;5015843;28;20042;-83
2021/12/10 09:02:20;;;;;;;13.75;3.90;;;2.90;85.90;;;;;;4998526;28;20436;-84
2021/12/10 09:04:48;;;;;;;17.35;3.85;;;2.90;86.20;;;;;;5010846;28;20498;-83
2021/12/10 09:07:45;;;;;;;18.05;4.25;;;2.90;86.50;;;;;;5002561;28;20429;-84
2021/12/10 09:10:38;;;;;;;20.02;4.72;;;2.90;86.90;;;;;;4997914;28;20050;-85
2021/12/10 09:13:12;;;;;;;15.27;4.20;;;2.80;86.90;;;;;;5024246;28;20062;-84
2021/12/10 09:15:53;;;;;;;14.52;4.75;;;2.90;87.00;;;;;;5039591;28;20576;-83
2021/12/10 09:18:27;;;;;;;10.73;4.10;;;2.90;87.30;;;;;;5034043;28;20053;-83
2021/12/10 09:21:03;;;;;;;13.70;3.97;;;2.90;87.20;;;;;;5049604;28;20045;-83
2021/12/10 09:23:47;;;;;;;13.90;4.22;;;2.90;87.20;;;;;;5051051;28;20532;-84
2021/12/10 09:26:27;;;;;;;14.57;4.20;;;2.90;87.40;;;;;;5036496;28;20054;-84
2021/12/10 09:29:35;;;;;;;14.55;4.43;;;2.90;86.80;;;;;;5040116;28;20595;-83
2021/12/10 09:32:10;;;;;;;13.70;3.90;;;3.00;87.10;;;;;;5064730;28;20041;-84
2021/12/10 09:35:02;;;;;;;14.25;3.72;;;3.00;87.00;;;;;;5045026;28;20811;-83
2021/12/10 09:37:42;;;;;;;15.23;4.57;;;3.00;86.40;;;;;;5047434;28;20049;-84
2021/12/10 09:40:31;;;;;;;11.82;3.88;;;3.00;86.60;;;;;;5032958;28;20046;-83
2021/12/10 09:43:17;;;;;;;10.88;4.00;;;3.00;86.80;;;;;;5040664;28;20513;-84
2021/12/10 09:45:52;;;;;;;13.88;4.35;;;3.10;86.80;;;;;;5034263;28;20054;-84
2021/12/10 09:48:23;;;;;;;13.90;4.03;;;3.10;87.00;;;;;;5042279;28;20058;-84
2021/12/10 09:50:56;;;;;;;16.33;4.68;;;3.10;87.00;;;;;;5035344;28;20705;-84
2021/12/10 09:53:50;;;;;;;9.23;3.33;;;3.10;87.00;;;;;;5045433;28;20457;-84
2021/12/10 09:56:20;;;;;;;10.38;3.67;;;3.10;86.90;;;;;;5039946;28;20513;-83
2021/12/10 09:58:48;;;;;;;18.35;4.20;;;3.10;86.30;;;;;;5037050;28;20788;-84
2021/12/10 10:01:31;;;;;;;12.90;4.20;;;3.20;86.80;;;;;;5050062;28;20108;-84
2021/12/10 10:04:04;;;;;;;14.27;4.30;;;3.20;87.10;;;;;;5042085;28;20185;-83
2021/12/10 10:06:44;;;;;;;12.75;4.00;;;3.20;86.20;;;;;;5037138;28;20100;-84
2021/12/10 10:09:32;;;;;;;9.23;3.33;;;3.20;86.60;;;;;;5036482;28;20398;-84
2021/12/10 10:12:04;;;;;;;10.68;3.25;;;3.30;86.50;;;;;;5049008;28;20053;-84
2021/12/10 10:14:33;;;;;;;14.98;3.88;;;3.30;85.90;;;;;;5037015;28;20073;-84
2021/12/10 10:17:07;;;;;;;10.50;4.10;;;3.20;85.70;;;;;;5045974;28;20057;-83
2021/12/10 10:19:34;;;;;;;9.98;3.78;;;3.30;86.10;;;;;;5050812;28;20144;-83
2021/12/10 10:22:10;;;;;;;12.82;4.10;;;3.30;86.50;;;;;;5035775;28;20527;-83
2021/12/10 10:24:37;;;;;;;11.25;3.80;;;3.30;86.50;;;;;;5052818;28;20049;-84
2021/12/10 10:27:23;;;;;;;15.18;4.60;;;3.40;86.70;;;;;;5056140;28;20073;-83
2021/12/10 10:30:27;;;;;;;12.95;3.90;;;3.40;86.60;;;;;;5049635;28;20058;-83
2021/12/10 10:33:23;;;;;;;12.13;4.05;;;3.50;87.00;;;;;;5026803;28;20054;-83
2021/12/10 10:36:23;;;;;;;8.83;3.40;;;3.40;86.60;;;;;;5062710;28;20050;-85
2021/12/10 10:39:38;;;;;;;12.40;3.53;;;3.40;86.40;;;;;;5042292;28;20148;-84
2021/12/10 10:42:24;;;;;;;11.18;3.97;;;3.40;86.20;;;;;;5039460;28;20416;-84
2021/12/10 10:45:04;;;;;;;11.00;3.10;;;3.40;86.20;;;;;;5050926;28;20980;-83
2021/12/10 10:47:59;;;;;;;11.55;3.10;;;3.40;86.50;;;;;;5047643;28;20552;-83
2021/12/10 10:50:39;;;;;;;10.32;3.13;;;3.40;86.30;;;;;;5054144;28;20119;-83
2021/12/10 10:53:28;;;;;;;12.18;3.10;;;3.40;87.20;;;;;;5037014;28;20481;-83
2021/12/10 10:56:25;;;;;;;13.20;3.47;;;3.40;86.80;;;;;;5039667;28;20084;-83
2021/12/10 10:59:00;;;;;;;11.98;3.72;;;3.40;87.10;;;;;;5051091;28;20050;-83
2021/12/10 11:01:35;;;;;;;11.43;3.10;;;3.50;87.20;;;;;;5047923;28;20120;-83
2021/12/10 11:04:33;;;;;;;14.07;3.20;;;3.50;86.90;;;;;;5044442;28;20603;-83
2021/12/10 11:07:12;;;;;;;13.38;3.90;;;3.60;87.30;;;;;;5045688;28;20116;-83
2021/12/10 11:09:52;;;;;;;11.63;3.78;;;3.60;86.50;;;;;;5040955;28;20053;-84
2021/12/10 11:12:33;;;;;;;10.00;3.70;;;3.70;86.80;;;;;;5049647;28;20132;-83
2021/12/10 11:15:18;;;;;;;7.63;2.92;;;3.70;86.40;;;;;;5041447;28;20062;-83
2021/12/10 11:17:59;;;;;;;15.60;4.70;;;3.70;85.90;;;;;;5040159;28;20402;-83
2021/12/10 11:20:33;;;;;;;9.75;3.15;;;3.80;86.10;;;;;;5045308;28;20045;-83
2021/12/10 11:23:12;;;;;;;15.95;3.17;;;3.90;85.60;;;;;;5044418;28;20061;-83
2021/12/10 11:25:53;;;;;;;9.95;3.03;;;3.90;85.50;;;;;;5043008;28;20144;-83
2021/12/10 11:28:36;;;;;;;10.95;3.45;;;4.00;84.40;;;;;;5058801;28;20053;-83
2021/12/10 11:31:16;;;;;;;13.32;3.53;;;3.90;84.40;;;;;;5048591;28;20141;-84
2021/12/10 11:33:49;;;;;;;12.48;2.92;;;4.00;84.10;;;;;;5046205;28;20058;-83
2021/12/10 11:36:27;;;;;;;15.70;4.45;;;4.00;84.10;;;;;;5047621;28;20908;-83
2021/12/10 11:38:58;;;;;;;18.20;3.47;;;4.00;84.20;;;;;;5046659;28;20083;-83
2021/12/10 11:41:46;;;;;;;8.25;3.10;;;4.10;82.20;;;;;;5058797;28;20060;-83
2021/12/10 11:44:44;;;;;;;9.52;3.08;;;4.10;83.20;;;;;;5055898;28;20070;-83
2021/12/10 11:47:38;;;;;;;12.32;3.78;;;4.10;83.40;;;;;;5051873;28;20750;-83
2021/12/10 11:50:16;;;;;;;8.88;2.88;;;4.20;81.80;;;;;;5039379;28;20050;-83
2021/12/10 11:53:02;;;;;;;14.40;3.00;;;4.20;82.60;;;;;;5042160;28;20781;-84
2021/12/10 11:55:57;;;;;;;11.02;2.83;;;4.20;81.10;;;;;;5042732;28;20108;-84
2021/12/10 11:58:27;;;;;;;9.10;3.00;;;4.20;82.20;;;;;;5044861;28;20057;-84
2021/12/10 12:00:55;;;;;;;6.88;2.88;;;4.30;82.70;;;;;;5044248;28;20134;-84
2021/12/10 12:03:37;;;;;;;8.68;3.40;;;4.30;82.10;;;;;;5044719;28;20112;-84
2021/12/10 12:06:04;;;;;;;11.30;3.47;;;4.30;82.00;;;;;;5044846;28;20859;-83
2021/12/10 12:08:37;;;;;;;11.02;3.33;;;4.40;82.70;;;;;;5042578;28;20501;-84
2021/12/10 12:11:08;;;;;;;7.20;2.95;;;4.40;81.70;;;;;;5035577;28;20177;-84
2021/12/10 12:13:58;;;;;;;15.52;3.40;;;4.40;82.40;;;;;;5041693;28;20828;-84
2021/12/10 12:16:27;;;;;;;10.73;3.83;;;4.50;83.20;;;;;;5041840;28;20053;-84
2021/12/10 12:19:16;;;;;;;10.88;3.08;;;4.50;80.30;;;;;;5037380;28;20090;-84
2021/12/10 12:25:08;;;;;;;17.17;3.40;;;4.50;81.20;;;;;;5028035;28;20843;-84
2021/12/10 12:27:41;;;;;;;10.32;3.50;;;4.60;80.80;;;;;;5007987;28;20509;-84
2021/12/10 12:30:34;;;;;;;10.45;2.95;;;4.60;81.90;;;;;;5017555;28;20081;-84
2021/12/10 12:33:39;;;;;;;;;;;;;;;;;;;;;
2021/12/10 12:36:14;;;;;;;10.75;2.95;;;4.60;80.50;;;;;;5017179;28;20059;-84
2021/12/10 12:38:45;;;;;;;17.77;3.55;;;4.60;80.20;;;;;;5012692;28;20100;-84
2021/12/10 12:41:40;;;;;;;8.63;2.85;;;4.60;79.80;;;;;;5014665;28;20050;-84
2021/12/10 12:44:30;;;;;;;10.85;2.78;;;4.60;80.10;;;;;;5017911;28;20927;-84
2021/12/10 12:47:29;;;;;;;9.43;2.58;;;4.60;80.90;;;;;;5025629;28;20042;-84
2021/12/10 12:50:06;;;;;;;10.27;2.65;;;4.60;80.00;;;;;;5014775;28;20062;-83
2021/12/10 12:52:49;;;;;;;13.60;3.13;;;4.60;79.00;;;;;;5029998;28;20101;-83
2021/12/10 12:55:44;;;;;;;7.25;2.42;;;4.60;79.60;;;;;;5009765;28;20062;-83
2021/12/10 12:58:29;;;;;;;12.60;3.03;;;4.60;78.70;;;;;;5024050;28;20068;-83
2021/12/10 13:01:36;;;;;;;8.57;2.67;;;4.60;79.00;;;;;;5029991;28;20056;-84
2021/12/10 13:04:15;;;;;;;10.30;3.15;;;4.60;79.00;;;;;;5050870;28;20595;-83
2021/12/10 13:15:56;;;;;;;12.82;2.85;;;4.60;78.50;;;;;;5021807;28;20050;-83
2021/12/10 13:18:25;;;;;;;11.93;2.78;;;4.60;79.80;;;;;;4949284;28;20051;-84
2021/12/10 13:20:54;;;;;;;11.38;2.60;;;4.60;80.00;;;;;;4948712;28;20574;-84
2021/12/10 13:23:42;;;;;;;12.52;2.42;;;4.50;78.00;;;;;;4948460;28;20051;-83
2021/12/10 13:26:25;;;;;;;8.68;2.75;;;4.50;79.60;;;;;;4948022;28;21980;-84
2021/12/10 13:28:57;;;;;;;13.48;3.33;;;4.60;80.70;;;;;;4933794;28;20074;-84
2021/12/10 13:31:25;;;;;;;10.65;3.13;;;4.50;79.90;;;;;;4946780;28;20051;-84
2021/12/10 13:33:55;;;;;;;10.18;2.53;;;4.60;79.90;;;;;;4950833;28;20059;-84
2021/12/10 13:36:40;;;;;;;7.20;2.70;;;4.50;80.00;;;;;;4944578;28;20978;-84
2021/12/10 13:39:23;;;;;;;10.25;3.13;;;4.50;79.30;;;;;;4944212;28;20064;-84
2021/12/10 13:41:51;;;;;;;13.48;3.05;;;4.50;77.90;;;;;;4958747;28;20154;-84
2021/12/10 13:44:43;;;;;;;8.25;2.72;;;4.50;78.50;;;;;;4950768;28;20048;-84
2021/12/10 13:47:51;;;;;;;11.85;2.80;;;4.50;79.10;;;;;;4906575;29;20190;-84
2021/12/10 13:50:23;;;;;;;11.55;3.10;;;4.50;80.10;;;;;;4956562;28;20058;-83
2021/12/10 13:52:51;;;;;;;9.55;2.88;;;4.50;79.70;;;;;;5022378;28;20847;-84
2021/12/10 13:55:37;;;;;;;10.90;2.88;;;4.50;79.90;;;;;;5045386;28;20134;-84
2021/12/10 13:58:33;;;;;;;9.57;2.78;;;4.50;80.40;;;;;;5041629;28;20866;-84
2021/12/10 14:01:16;;;;;;;11.23;3.45;;;4.50;80.60;;;;;;5040904;28;20054;-84
2021/12/10 14:04:17;;;;;;;11.05;3.83;;;4.50;80.60;;;;;;5046199;28;20064;-84
2021/12/10 14:07:09;;;;;;;10.55;2.95;;;4.40;80.40;;;;;;5040813;28;20919;-84